Time;durP1;ratioP1;P1;durP2;ratioP2;P2;SDS_P1;SDS_P2;PMS_P1;PMS_P2;Temp;Humidity;BMP_temperature;BMP_pressure;BME280_temperature;BME280_humidity;BME280_pressure;Samples;Min_cycle;Max_cycle;Signal;HPM_P1;HPM_P2
2023/02/02 00:02:01;;;;;;;29.92;5.85;;;;;;;6.19;100.00;101813.00;4992142;28;20060;-79
2023/02/02 00:04:32;;;;;;;23.20;5.07;;;;;;;6.19;100.00;101813.00;5003866;28;20044;-79
2023/02/02 00:06:59;;;;;;;28.27;4.00;;;;;;;6.13;100.00;101813.41;5004107;28;20052;-80
2023/02/02 00:09:27;;;;;;;32.20;4.25;;;;;;;6.24;100.00;101808.38;5019410;28;20394;-80
2023/02/02 00:11:53;;;;;;;29.92;4.97;;;;;;;6.26;100.00;101810.84;5006656;28;20033;-79
2023/02/02 00:14:19;;;;;;;31.17;5.53;;;;;;;6.22;100.00;101800.72;5003190;28;20037;-79
2023/02/02 00:16:47;;;;;;;23.08;4.30;;;;;;;6.18;100.00;101806.22;5016106;28;20037;-78
2023/02/02 00:19:18;;;;;;;29.85;4.63;;;;;;;6.32;100.00;101800.94;4990184;28;20029;-80
2023/02/02 00:21:44;;;;;;;28.83;4.75;;;;;;;6.23;100.00;101806.69;5006527;28;20068;-79
2023/02/02 00:24:12;;;;;;;31.73;5.20;;;;;;;6.23;100.00;101810.13;4991705;28;20459;-80
2023/02/02 00:26:39;;;;;;;35.05;5.72;;;;;;;6.12;100.00;101804.88;4990066;28;20409;-80
2023/02/02 00:29:05;;;;;;;34.70;4.90;;;;;;;6.19;100.00;101800.13;5021395;28;20049;-80
2023/02/02 00:31:31;;;;;;;28.88;4.05;;;;;;;6.29;100.00;101801.16;4992228;28;20038;-79
2023/02/02 00:33:57;;;;;;;35.08;4.60;;;;;;;6.23;100.00;101797.25;5008290;28;20037;-79
2023/02/02 00:36:22;;;;;;;23.90;4.20;;;;;;;6.19;100.00;101800.94;4994408;28;20433;-79
2023/02/02 00:38:49;;;;;;;21.10;4.35;;;;;;;6.25;100.00;101797.13;4990475;28;20026;-78
2023/02/02 00:41:15;;;;;;;18.50;3.85;;;;;;;6.34;100.00;101799.06;5006759;28;20095;-80
2023/02/02 00:43:41;;;;;;;31.65;3.63;;;;;;;6.27;100.00;101792.69;4990783;28;20029;-79
2023/02/02 00:46:15;;;;;;;24.98;5.75;;;;;;;6.20;100.00;101799.19;5008787;28;20040;-79
2023/02/02 00:48:41;;;;;;;19.98;3.42;;;;;;;6.12;100.00;101794.56;4990967;28;20044;-79
2023/02/02 00:51:06;;;;;;;25.50;3.75;;;;;;;6.19;100.00;101794.97;5003849;28;20033;-79
2023/02/02 00:53:32;;;;;;;27.48;5.45;;;;;;;6.27;100.00;101800.41;5002143;28;20041;-80
2023/02/02 00:55:57;;;;;;;25.63;4.15;;;;;;;6.32;100.00;101798.34;4987379;28;20065;-78
2023/02/02 00:58:22;;;;;;;27.65;4.47;;;;;;;6.34;100.00;101801.66;5004449;28;20057;-79
2023/02/02 01:00:48;;;;;;;21.33;3.92;;;;;;;6.40;100.00;101805.56;5019405;28;20649;-80
2023/02/02 01:03:13;;;;;;;19.58;4.03;;;;;;;6.50;100.00;101806.59;4984308;28;20104;-79
2023/02/02 01:05:39;;;;;;;19.98;4.00;;;;;;;6.47;100.00;101816.28;5007337;28;20117;-77
2023/02/02 01:08:04;;;;;;;21.20;3.45;;;;;;;6.39;100.00;101819.41;4996283;28;20038;-78
2023/02/02 01:10:32;;;;;;;21.80;4.15;;;;;;;6.39;100.00;101824.53;4986666;28;20034;-78
2023/02/02 01:12:58;;;;;;;27.13;4.25;;;;;;;6.37;100.00;101826.41;4983304;28;20046;-80
2023/02/02 01:15:23;;;;;;;27.23;3.35;;;;;;;6.37;100.00;101822.06;5005663;28;20056;-77
2023/02/02 01:17:49;;;;;;;21.08;4.40;;;;;;;6.36;100.00;101820.41;4989028;28;20045;-79
2023/02/02 01:20:17;;;;;;;18.92;3.63;;;;;;;6.37;100.00;101823.81;4993382;28;20048;-80
2023/02/02 01:22:43;;;;;;;17.02;4.10;;;;;;;6.33;100.00;101819.78;5011142;28;20167;-79
2023/02/02 01:25:09;;;;;;;22.05;2.85;;;;;;;6.40;100.00;101814.13;5005995;28;20703;-78
2023/02/02 01:27:34;;;;;;;25.73;5.40;;;;;;;6.38;100.00;101823.69;5004037;28;20046;-78
2023/02/02 01:30:00;;;;;;;18.20;3.58;;;;;;;6.38;100.00;101835.75;5003296;28;20037;-78
2023/02/02 01:32:27;;;;;;;23.05;3.58;;;;;;;6.37;100.00;101822.06;4988130;28;20056;-79
2023/02/02 01:34:53;;;;;;;34.45;4.75;;;;;;;6.39;100.00;101820.22;4990416;28;20057;-78
2023/02/02 01:37:18;;;;;;;19.55;3.22;;;;;;;6.31;100.00;101831.94;5000712;28;20034;-79
2023/02/02 01:39:44;;;;;;;30.23;3.38;;;;;;;6.36;100.00;101827.31;5009246;28;20029;-80
2023/02/02 01:42:21;;;;;;;25.20;4.07;;;;;;;6.42;100.00;101838.03;5009964;28;20034;-79
2023/02/02 01:45:15;;;;;;;20.27;4.80;;;;;;;6.35;100.00;101834.22;4993623;28;20032;-79
2023/02/02 01:47:50;;;;;;;20.83;3.50;;;;;;;6.24;100.00;101840.09;5007443;28;20040;-80
2023/02/02 01:50:20;;;;;;;22.20;4.70;;;;;;;6.37;100.00;101841.88;5017264;28;20504;-79
2023/02/02 01:52:49;;;;;;;31.15;4.18;;;;;;;6.42;100.00;101852.66;5015993;28;20498;-79
2023/02/02 01:55:18;;;;;;;36.33;4.57;;;;;;;6.37;100.00;101847.00;4995124;28;20033;-79
2023/02/02 01:57:51;;;;;;;24.73;4.20;;;;;;;6.20;100.00;101850.72;5008365;28;20040;-79
2023/02/02 02:00:23;;;;;;;22.52;4.75;;;;;;;6.16;100.00;101844.09;5004806;28;20056;-80
2023/02/02 02:02:52;;;;;;;27.40;4.30;;;;;;;6.12;100.00;101842.66;5015899;28;20042;-80
2023/02/02 02:05:30;;;;;;;24.60;3.50;;;;;;;6.06;100.00;101832.75;5001490;28;20053;-79
2023/02/02 02:08:03;;;;;;;26.65;3.85;;;;;;;6.10;100.00;101829.06;5010490;28;20137;-79
2023/02/02 02:10:29;;;;;;;28.50;5.82;;;;;;;6.25;100.00;101835.75;5025540;28;20034;-79
2023/02/02 02:12:54;;;;;;;25.23;4.53;;;;;;;6.26;100.00;101832.25;5001098;28;20429;-79
2023/02/02 02:18:40;;;;;;;26.73;3.95;;;;;;;6.13;100.00;101832.25;5023352;28;20048;-79
2023/02/02 02:28:00;;;;;;;41.65;4.70;;;;;;;6.11;100.00;101823.00;4987718;28;20157;-80
2023/02/02 02:30:57;;;;;;;33.80;6.60;;;;;;;6.23;100.00;101817.00;5014829;28;20124;-79
2023/02/02 02:33:38;;;;;;;37.70;4.97;;;;;;;6.18;100.00;101821.66;5010574;28;20038;-80
2023/02/02 02:36:42;;;;;;;38.88;4.30;;;;;;;6.14;100.00;101821.03;5010437;28;20029;-79
2023/02/02 02:39:37;;;;;;;18.60;3.15;;;;;;;6.18;100.00;101822.47;5011680;28;20053;-79
2023/02/02 02:42:15;;;;;;;20.23;3.38;;;;;;;6.26;100.00;101827.13;5006946;28;20175;-80
2023/02/02 02:44:42;;;;;;;19.88;3.80;;;;;;;6.13;100.00;101824.53;5005694;28;20083;-79
2023/02/02 02:47:09;;;;;;;33.10;4.60;;;;;;;6.13;100.00;101823.72;4996887;28;20056;-80
2023/02/02 02:49:42;;;;;;;31.35;6.93;;;;;;;6.15;100.00;101821.84;4997536;28;20071;-78
2023/02/02 02:52:08;;;;;;;;;;;;;;;6.09;100.00;101827.41;4994291;28;20103;-80
2023/02/02 02:54:54;;;;;;;25.60;3.75;;;;;;;6.03;100.00;101831.22;4998057;28;19919;-79
2023/02/02 02:57:43;;;;;;;18.65;3.90;;;;;;;6.15;100.00;101834.72;4990910;28;20040;-78
2023/02/02 03:00:31;;;;;;;25.02;4.75;;;;;;;6.07;100.00;101831.84;5006442;28;20026;-79
2023/02/02 03:03:17;;;;;;;31.30;4.43;;;;;;;6.14;100.00;101827.91;4996177;28;20033;-78
2023/02/02 03:06:13;;;;;;;27.27;4.80;;;;;;;6.10;100.00;101836.78;4994666;28;20053;-78
2023/02/02 03:08:58;;;;;;;27.17;3.33;;;;;;;6.13;100.00;101832.25;5008078;28;20152;-79
2023/02/02 03:11:24;;;;;;;21.00;3.33;;;;;;;6.06;100.00;101836.16;5024410;28;20490;-79
2023/02/02 03:13:49;;;;;;;19.70;4.40;;;;;;;6.12;100.00;101842.66;5002336;28;20040;-79
2023/02/02 03:16:16;;;;;;;32.67;4.10;;;;;;;6.23;100.00;101833.31;5004739;28;20041;-80
2023/02/02 03:18:43;;;;;;;28.70;4.75;;;;;;;6.18;100.00;101834.53;4996699;28;20108;-80
2023/02/02 03:21:09;;;;;;;27.20;4.03;;;;;;;6.15;100.00;101829.59;5029000;28;20082;-80
2023/02/02 03:23:35;;;;;;;29.15;5.10;;;;;;;6.18;100.00;101839.69;4993512;28;20041;-79
2023/02/02 03:26:00;;;;;;;23.52;3.75;;;;;;;6.04;100.00;101843.97;5004619;28;20045;-79
2023/02/02 03:28:26;;;;;;;22.48;4.05;;;;;;;6.13;100.00;101846.88;5001851;28;20056;-79
2023/02/02 03:30:53;;;;;;;21.77;4.57;;;;;;;6.08;100.00;101842.03;5012010;28;20457;-79
2023/02/02 03:33:19;;;;;;;28.75;4.57;;;;;;;6.13;100.00;101828.88;5004054;28;20618;-79
2023/02/02 03:35:46;;;;;;;24.92;4.35;;;;;;;6.16;100.00;101844.09;5006270;28;20034;-80
2023/02/02 03:38:11;;;;;;;23.08;3.67;;;;;;;6.20;100.00;101846.38;5012571;28;20052;-79
2023/02/02 03:40:38;;;;;;;21.10;4.32;;;;;;;6.28;100.00;101845.88;4989754;28;20033;-79
2023/02/02 03:43:04;;;;;;;27.77;4.05;;;;;;;6.19;100.00;101839.56;4993993;28;20045;-78
2023/02/02 03:45:30;;;;;;;33.70;4.57;;;;;;;6.16;100.00;101841.50;4992686;28;20152;-79
2023/02/02 03:47:56;;;;;;;26.50;3.67;;;;;;;6.26;100.00;101834.03;5008895;28;20069;-80
2023/02/02 03:50:24;;;;;;;24.30;5.20;;;;;;;6.18;100.00;101835.34;4997352;28;20065;-79
2023/02/02 03:52:49;;;;;;;32.58;4.40;;;;;;;6.19;100.00;101843.91;4991628;28;20333;-79
2023/02/02 03:55:15;;;;;;;19.42;3.60;;;;;;;6.35;100.00;101838.56;5025647;28;20030;-80
2023/02/02 03:57:40;;;;;;;25.10;4.82;;;;;;;6.31;100.00;101845.69;4993329;28;20161;-79
2023/02/02 04:00:06;;;;;;;16.00;3.60;;;;;;;6.23;100.00;101845.34;5022520;28;20029;-80
2023/02/02 04:02:37;;;;;;;23.92;3.63;;;;;;;6.29;100.00;101844.09;5006683;28;20045;-79
2023/02/02 04:05:03;;;;;;;23.90;4.93;;;;;;;6.27;100.00;101849.34;4994138;28;20038;-79
2023/02/02 04:07:28;;;;;;;26.85;4.07;;;;;;;6.34;100.00;101850.59;4992215;28;20033;-79
2023/02/02 04:09:54;;;;;;;27.02;3.97;;;;;;;6.28;100.00;101847.63;4995608;28;20033;-80
2023/02/02 04:12:19;;;;;;;29.45;3.88;;;;;;;6.36;100.00;101853.09;5008968;28;20072;-79
2023/02/02 04:14:45;;;;;;;23.40;3.22;;;;;;;6.34;100.00;101855.75;5005628;28;20125;-79
2023/02/02 04:17:10;;;;;;;17.30;3.78;;;;;;;6.35;100.00;101857.41;4992812;28;20038;-80
2023/02/02 04:19:36;;;;;;;19.90;3.97;;;;;;;6.26;100.00;101850.31;4994280;28;20041;-79
2023/02/02 04:22:01;;;;;;;24.75;4.20;;;;;;;6.35;100.00;101854.84;4989040;28;20042;-79
2023/02/02 04:24:27;;;;;;;25.15;3.28;;;;;;;6.38;100.00;101856.38;5022888;28;20037;-80
2023/02/02 04:26:52;;;;;;;24.77;5.63;;;;;;;6.43;100.00;101855.13;4993255;28;20017;-78
2023/02/02 04:29:20;;;;;;;24.25;4.05;;;;;;;6.46;100.00;101855.84;5009536;28;20040;-79
2023/02/02 04:31:45;;;;;;;24.15;4.25;;;;;;;6.31;100.00;101858.56;5025199;28;20099;-79
2023/02/02 04:34:11;;;;;;;28.85;4.55;;;;;;;6.39;100.00;101855.47;4994584;28;20037;-79
2023/02/02 04:36:36;;;;;;;18.55;4.43;;;;;;;6.46;100.00;101866.16;4990750;28;20037;-80
2023/02/02 04:39:01;;;;;;;30.65;3.78;;;;;;;6.33;100.00;101868.72;5005532;28;20049;-79
2023/02/02 04:41:27;;;;;;;22.75;4.28;;;;;;;6.37;100.00;101875.34;5002293;28;20034;-79
2023/02/02 04:43:52;;;;;;;26.30;5.50;;;;;;;6.39;100.00;101873.50;5001437;28;20495;-80
2023/02/02 04:46:18;;;;;;;28.33;3.90;;;;;;;6.45;100.00;101878.22;5003652;28;20017;-79
2023/02/02 04:48:43;;;;;;;29.55;4.60;;;;;;;6.35;100.00;101874.63;5015824;28;20038;-79
2023/02/02 04:51:12;;;;;;;34.47;5.93;;;;;;;6.34;100.00;101873.78;5007680;28;20033;-79
2023/02/02 04:53:39;;;;;;;20.83;5.13;;;;;;;6.41;100.00;101872.47;5003683;28;20057;-80
2023/02/02 04:56:07;;;;;;;24.65;3.70;;;;;;;6.25;100.00;101874.41;4990663;28;20033;-79
2023/02/02 04:58:32;;;;;;;30.92;4.13;;;;;;;6.30;100.00;101876.69;5020539;28;20379;-79
2023/02/02 05:00:58;;;;;;;26.83;3.22;;;;;;;6.21;100.00;101884.06;4995396;28;20087;-79
2023/02/02 05:03:23;;;;;;;25.15;4.13;;;;;;;6.33;100.00;101891.91;4994628;28;20576;-80
2023/02/02 05:05:49;;;;;;;22.45;4.88;;;;;;;6.28;100.00;101879.34;5004487;28;20021;-80
2023/02/02 05:08:14;;;;;;;25.73;5.03;;;;;;;6.30;100.00;101885.22;4992242;28;20034;-80
2023/02/02 05:10:40;;;;;;;26.95;3.72;;;;;;;6.28;100.00;101894.81;4990654;28;20025;-80
2023/02/02 05:13:06;;;;;;;25.08;3.83;;;;;;;6.32;100.00;101888.53;4999830;28;20072;-80
2023/02/02 05:15:32;;;;;;;16.33;3.20;;;;;;;6.23;100.00;101886.56;5006742;28;20033;-81
2023/02/02 05:17:58;;;;;;;23.25;4.03;;;;;;;6.22;100.00;101884.91;4999716;28;20056;-80
2023/02/02 05:20:23;;;;;;;27.83;4.20;;;;;;;6.29;100.00;101870.72;4994980;28;23110;-81
2023/02/02 05:22:49;;;;;;;37.80;4.85;;;;;;;6.34;100.00;101867.81;5002008;28;20034;-78
2023/02/02 05:25:15;;;;;;;28.13;4.20;;;;;;;6.31;100.00;101857.72;5007999;28;20546;-79
2023/02/02 05:27:45;;;;;;;17.50;3.63;;;;;;;6.35;100.00;101859.19;4990042;28;20045;-79
2023/02/02 05:30:12;;;;;;;26.65;4.72;;;;;;;6.36;100.00;101861.63;4985467;28;20439;-81
2023/02/02 05:32:37;;;;;;;31.67;4.28;;;;;;;6.33;100.00;101851.53;4992518;28;20029;-81
2023/02/02 05:35:03;;;;;;;19.50;4.85;;;;;;;6.23;100.00;101853.06;5006667;28;22671;-81
2023/02/02 05:37:29;;;;;;;19.58;4.72;;;;;;;6.34;100.00;101854.94;4993148;28;20037;-80
2023/02/02 05:39:54;;;;;;;30.50;5.90;;;;;;;6.34;100.00;101858.34;5004447;28;20045;-80
2023/02/02 05:42:20;;;;;;;26.75;5.18;;;;;;;6.30;100.00;101851.75;4988289;28;20491;-81
2023/02/02 05:44:45;;;;;;;25.80;4.60;;;;;;;6.26;100.00;101854.63;5021160;28;20037;-81
2023/02/02 05:47:11;;;;;;;28.65;5.57;;;;;;;6.30;100.00;101856.88;5002610;28;20075;-80
2023/02/02 05:49:36;;;;;;;24.23;5.50;;;;;;;6.26;100.00;101864.94;4995638;28;20732;-78
2023/02/02 05:52:02;;;;;;;33.97;6.43;;;;;;;6.31;100.00;101863.72;5009267;28;20037;-80
2023/02/02 05:54:27;;;;;;;29.05;5.38;;;;;;;6.22;100.00;101869.47;4992561;28;20111;-80
2023/02/02 05:56:54;;;;;;;58.67;14.32;;;;;;;6.31;100.00;101876.59;4994486;28;20429;-80
2023/02/02 05:59:20;;;;;;;45.92;10.32;;;;;;;6.35;100.00;101875.44;5005868;28;20702;-80
2023/02/02 06:01:46;;;;;;;50.30;15.95;;;;;;;6.41;100.00;101881.94;5019287;28;20033;-79
2023/02/02 06:04:12;;;;;;;39.25;10.00;;;;;;;6.33;100.00;101879.03;4993577;28;20738;-80
2023/02/02 06:06:38;;;;;;;33.95;8.50;;;;;;;6.31;100.00;101886.03;4991277;28;20025;-79
2023/02/02 06:09:07;;;;;;;34.78;10.85;;;;;;;6.36;100.00;101887.38;5007785;28;20053;-79
2023/02/02 06:11:33;;;;;;;34.30;8.60;;;;;;;6.29;100.00;101898.19;5007963;28;20033;-80
2023/02/02 06:14:00;;;;;;;33.38;9.93;;;;;;;6.21;100.00;101893.56;4989487;28;20068;-79
2023/02/02 06:16:25;;;;;;;33.00;10.10;;;;;;;6.27;100.00;101898.28;4995415;28;20144;-79
2023/02/02 06:18:51;;;;;;;35.45;12.60;;;;;;;6.25;100.00;101907.88;4987115;28;20034;-80
2023/02/02 06:21:18;;;;;;;35.40;10.35;;;;;;;6.22;100.00;101903.75;5001966;28;20049;-79
2023/02/02 06:23:44;;;;;;;39.92;9.90;;;;;;;6.18;100.00;101904.91;5016544;28;20165;-77
2023/02/02 06:26:14;;;;;;;32.10;8.73;;;;;;;6.19;100.00;101910.88;5003120;28;20594;-79
2023/02/02 06:28:40;;;;;;;36.13;8.73;;;;;;;6.15;100.00;101909.41;4986304;28;20042;-79
2023/02/02 06:31:07;;;;;;;42.50;11.90;;;;;;;6.15;100.00;101914.56;5002976;28;20045;-79
2023/02/02 06:33:33;;;;;;;36.13;11.63;;;;;;;6.21;100.00;101912.41;5002623;28;20061;-78
2023/02/02 06:36:00;;;;;;;27.85;7.85;;;;;;;6.24;100.00;101911.41;5005046;28;20184;-76
2023/02/02 06:38:26;;;;;;;29.80;7.18;;;;;;;6.18;100.00;101909.22;5018710;28;20080;-80
2023/02/02 06:40:52;;;;;;;39.20;8.82;;;;;;;6.14;100.00;101915.47;4996048;28;20033;-79
2023/02/02 06:43:18;;;;;;;30.60;8.35;;;;;;;6.23;100.00;101907.16;4995768;28;20551;-79
2023/02/02 06:45:43;;;;;;;33.60;7.60;;;;;;;6.27;100.00;101905.22;4987552;28;20038;-79
2023/02/02 06:48:09;;;;;;;31.90;6.82;;;;;;;6.16;100.00;101906.75;4987097;28;20038;-77
2023/02/02 06:50:39;;;;;;;29.77;8.82;;;;;;;6.20;100.00;101910.78;4989722;28;20063;-78
2023/02/02 06:53:04;;;;;;;35.55;8.07;;;;;;;6.18;100.00;101922.13;5009185;28;20117;-80
2023/02/02 06:55:30;;;;;;;23.42;6.68;;;;;;;6.15;100.00;101912.00;5009781;28;20060;-79
2023/02/02 06:57:56;;;;;;;35.75;7.43;;;;;;;6.20;100.00;101909.94;4993670;28;20042;-80
2023/02/02 07:00:22;;;;;;;33.85;7.22;;;;;;;6.12;100.00;101922.50;4996965;28;20033;-80
2023/02/02 07:02:48;;;;;;;32.22;8.55;;;;;;;6.08;100.00;101918.47;5019467;28;20096;-79
2023/02/02 07:05:13;;;;;;;78.60;19.58;;;;;;;6.15;100.00;101930.03;4994972;28;20034;-80
2023/02/02 07:07:39;;;;;;;63.67;15.75;;;;;;;6.35;100.00;101928.72;4997167;28;20044;-80
2023/02/02 07:10:05;;;;;;;64.78;19.15;;;;;;;6.30;100.00;101930.78;4996154;28;20546;-80
2023/02/02 07:12:30;;;;;;;52.60;13.05;;;;;;;6.20;100.00;101933.13;4993974;28;20049;-80
2023/02/02 07:14:56;;;;;;;71.40;20.48;;;;;;;6.35;100.00;101926.16;4993846;28;20030;-80
2023/02/02 07:17:21;;;;;;;56.67;15.02;;;;;;;6.26;100.00;101932.72;4993931;28;20120;-80
2023/02/02 07:19:47;;;;;;;59.83;18.63;;;;;;;6.32;100.00;101928.94;4992050;28;20041;-79
2023/02/02 07:22:13;;;;;;;26.55;9.95;;;;;;;6.22;100.00;101926.94;5011460;28;20042;-80
2023/02/02 07:24:38;;;;;;;35.47;8.32;;;;;;;6.28;100.00;101932.63;4994334;28;20064;-80
2023/02/02 07:27:04;;;;;;;30.92;7.68;;;;;;;6.33;100.00;101923.69;5018507;28;20061;-79
2023/02/02 07:29:30;;;;;;;31.00;9.20;;;;;;;6.33;100.00;101931.41;5027342;28;20030;-76
2023/02/02 07:31:56;;;;;;;37.80;7.32;;;;;;;6.32;100.00;101931.50;5013610;28;20049;-78
2023/02/02 07:34:22;;;;;;;37.10;8.65;;;;;;;6.33;100.00;101944.28;5026150;28;20044;-79
2023/02/02 07:36:47;;;;;;;28.73;8.30;;;;;;;6.38;100.00;101937.06;4996795;28;20037;-79
2023/02/02 07:39:13;;;;;;;32.75;9.45;;;;;;;6.28;100.00;101941.19;5009362;28;20494;-80
2023/02/02 07:41:38;;;;;;;22.33;8.50;;;;;;;6.28;100.00;101938.59;5002823;28;20072;-80
2023/02/02 07:44:14;;;;;;;37.75;11.93;;;;;;;6.34;100.00;101951.06;5009929;28;20029;-78
2023/02/02 07:46:41;;;;;;;36.67;9.68;;;;;;;6.31;100.00;101948.72;5008383;28;20087;-81
2023/02/02 07:49:06;;;;;;;38.92;10.52;;;;;;;6.32;100.00;101944.38;5005952;28;20562;-79
2023/02/02 07:51:32;;;;;;;32.38;9.63;;;;;;;6.27;100.00;101954.97;5013217;28;20087;-77
2023/02/02 07:53:58;;;;;;;28.85;9.27;;;;;;;6.24;100.00;101947.47;5018949;28;20041;-78
2023/02/02 07:56:27;;;;;;;36.58;10.48;;;;;;;6.20;100.00;101933.13;5010703;28;20039;-80
2023/02/02 07:58:54;;;;;;;33.55;11.77;;;;;;;6.22;100.00;101941.59;5006973;28;20042;-79
2023/02/02 08:01:21;;;;;;;38.00;9.63;;;;;;;6.23;100.00;101941.50;5024811;28;20050;-80
2023/02/02 08:03:49;;;;;;;34.03;11.43;;;;;;;6.27;100.00;101938.69;5006993;28;20037;-79
2023/02/02 08:06:27;;;;;;;32.03;10.45;;;;;;;6.26;100.00;101937.88;4991941;28;20723;-80
2023/02/02 08:08:52;;;;;;;36.00;11.68;;;;;;;6.26;100.00;101947.38;5005042;28;20045;-79
2023/02/02 08:11:20;;;;;;;30.73;8.82;;;;;;;6.28;100.00;101948.91;5013406;28;20038;-80
2023/02/02 08:13:51;;;;;;;37.83;11.10;;;;;;;6.26;100.00;101963.63;4990590;28;20112;-79
2023/02/02 08:16:17;;;;;;;41.70;9.60;;;;;;;6.29;100.00;101960.88;5008575;28;20038;-78
2023/02/02 08:18:43;;;;;;;72.05;23.70;;;;;;;6.33;100.00;101962.31;5010992;28;20037;-80
2023/02/02 08:21:10;;;;;;;106.05;30.30;;;;;;;6.32;100.00;101965.81;5011418;28;20034;-79
2023/02/02 08:23:37;;;;;;;106.30;29.02;;;;;;;6.27;100.00;101959.31;5012426;28;20044;-81
2023/02/02 08:26:18;;;;;;;85.20;30.30;;;;;;;6.27;100.00;101969.59;4993747;28;20072;-78
2023/02/02 08:28:46;;;;;;;54.80;16.17;;;;;;;6.23;100.00;101971.56;4993367;28;20060;-79
2023/02/02 08:31:14;;;;;;;22.08;8.32;;;;;;;6.36;100.00;101964.69;5007679;28;20521;-79
2023/02/02 08:33:39;;;;;;;34.90;8.57;;;;;;;6.27;100.00;101970.44;5011247;28;20033;-79
2023/02/02 08:36:10;;;;;;;31.70;7.38;;;;;;;6.23;100.00;101976.72;5008225;28;20483;-78
2023/02/02 08:38:35;;;;;;;26.35;7.50;;;;;;;6.21;100.00;101976.81;4993835;28;20323;-78
2023/02/02 08:41:06;;;;;;;29.02;7.88;;;;;;;6.31;100.00;101983.94;5028444;28;20477;-77
2023/02/02 08:43:31;;;;;;;26.88;7.90;;;;;;;6.24;100.00;101973.22;5007101;28;20482;-77
2023/02/02 08:45:56;;;;;;;32.20;8.40;;;;;;;6.33;100.00;101985.50;5009618;28;20032;-79
2023/02/02 08:48:22;;;;;;;42.78;8.40;;;;;;;6.37;100.00;101991.28;5011343;28;20053;-79
2023/02/02 08:50:55;;;;;;;28.40;7.80;;;;;;;6.37;100.00;101996.44;5010661;28;20041;-79
2023/02/02 08:53:22;;;;;;;30.17;6.97;;;;;;;6.29;100.00;101993.53;5010423;28;20116;-79
2023/02/02 08:56:00;;;;;;;32.67;7.20;;;;;;;6.29;100.00;101999.50;5012604;28;20582;-79
2023/02/02 08:58:26;;;;;;;29.88;7.78;;;;;;;6.20;100.00;102008.66;5005282;28;20048;-79
2023/02/02 09:00:51;;;;;;;30.27;7.97;;;;;;;6.21;100.00;102005.13;5008247;28;20033;-78
2023/02/02 09:03:17;;;;;;;37.67;7.90;;;;;;;6.21;100.00;102005.13;5011706;28;20041;-78
2023/02/02 09:05:43;;;;;;;27.08;6.75;;;;;;;6.24;100.00;102017.00;4998655;28;20030;-78
2023/02/02 09:08:08;;;;;;;30.80;8.30;;;;;;;6.22;100.00;102019.69;5011430;28;20526;-79
2023/02/02 09:10:35;;;;;;;26.60;8.05;;;;;;;6.27;100.00;102013.41;4992073;28;20029;-79
2023/02/02 09:13:00;;;;;;;36.97;7.68;;;;;;;6.31;100.00;102022.59;5015923;28;20057;-77
2023/02/02 09:15:26;;;;;;;34.67;8.50;;;;;;;6.32;100.00;102027.63;4999651;28;20041;-78
2023/02/02 09:17:52;;;;;;;30.38;7.32;;;;;;;6.36;100.00;102036.81;4991215;28;20124;-78
2023/02/02 09:20:17;;;;;;;26.08;7.50;;;;;;;6.35;100.00;102042.09;5003489;28;20044;-78
2023/02/02 09:22:43;;;;;;;34.90;9.70;;;;;;;6.30;100.00;102044.94;5003745;28;20502;-77
2023/02/02 09:25:08;;;;;;;39.80;8.35;;;;;;;6.29;100.00;102051.03;5002170;28;20044;-78
2023/02/02 09:27:38;;;;;;;35.33;8.50;;;;;;;6.26;100.00;102064.09;5008529;28;20037;-78
2023/02/02 09:30:04;;;;;;;30.10;8.55;;;;;;;6.28;100.00;102071.75;4987968;28;20830;-79
2023/02/02 09:32:29;;;;;;;141.70;33.25;;;;;;;6.26;100.00;102069.25;5010321;28;20116;-78
2023/02/02 09:34:55;;;;;;;141.30;34.67;;;;;;;6.30;100.00;102081.00;4993867;28;20251;-81
2023/02/02 09:37:20;;;;;;;298.25;69.32;;;;;;;6.31;100.00;102080.09;4989581;28;20037;-78
2023/02/02 09:39:46;;;;;;;119.60;31.48;;;;;;;6.37;100.00;102087.44;5019543;28;20045;-78
2023/02/02 09:42:42;;;;;;;72.10;24.10;;;;;;;6.24;100.00;102097.69;4991926;28;20066;-78
2023/02/02 09:45:30;;;;;;;37.10;11.85;;;;;;;6.28;100.00;102090.59;5008178;28;20128;-78
2023/02/02 09:48:21;;;;;;;53.45;19.05;;;;;;;6.32;100.00;102098.97;4984077;28;20095;-78
2023/02/02 09:50:57;;;;;;;29.60;10.07;;;;;;;6.32;100.00;102107.50;5022019;28;20030;-78
2023/02/02 09:53:41;;;;;;;44.60;16.85;;;;;;;6.36;100.00;102097.84;5025096;28;20029;-78
2023/02/02 09:56:16;;;;;;;39.58;11.30;;;;;;;6.34;100.00;102104.84;5000280;28;20041;-77
2023/02/02 09:58:51;;;;;;;27.50;8.60;;;;;;;6.42;100.00;102124.06;5017604;28;20108;-78
2023/02/02 10:01:41;;;;;;;40.70;9.65;;;;;;;6.29;100.00;102117.16;5008755;28;20033;-78
2023/02/02 10:04:28;;;;;;;29.83;8.57;;;;;;;6.32;100.00;102130.69;5006056;28;20057;-78
2023/02/02 10:06:57;;;;;;;25.90;9.07;;;;;;;6.42;100.00;102124.06;5017140;28;20033;-78
2023/02/02 10:09:32;;;;;;;31.23;8.52;;;;;;;6.48;100.00;102133.16;5003649;28;20033;-77
2023/02/02 10:12:45;;;;;;;31.10;9.25;;;;;;;6.45;100.00;102141.06;4989659;28;20066;-79
2023/02/02 10:15:44;;;;;;;31.52;8.15;;;;;;;6.42;100.00;102133.50;5021590;28;20113;-79
2023/02/02 10:18:35;;;;;;;31.48;8.48;;;;;;;6.43;100.00;102138.56;5020699;28;20060;-78
2023/02/02 10:21:16;;;;;;;29.38;7.75;;;;;;;6.45;100.00;102145.41;5006688;28;20038;-77
2023/02/02 10:23:44;;;;;;;32.45;9.60;;;;;;;6.56;100.00;102135.25;5004359;28;20034;-78
2023/02/02 10:26:31;;;;;;;23.83;7.57;;;;;;;6.45;100.00;102138.50;5023922;28;20025;-79
2023/02/02 10:29:31;;;;;;;35.60;7.57;;;;;;;6.50;100.00;102146.75;5013462;28;20086;-77
2023/02/02 10:32:33;;;;;;;31.02;6.60;;;;;;;6.53;100.00;102148.31;5004119;28;20456;-78
2023/02/02 10:35:17;;;;;;;31.13;7.45;;;;;;;6.51;100.00;102145.00;5006463;28;20041;-78
2023/02/02 10:37:52;;;;;;;20.38;7.13;;;;;;;6.58;100.00;102143.69;5023370;28;20150;-77
2023/02/02 10:40:18;;;;;;;22.20;6.75;;;;;;;6.49;100.00;102141.69;5027478;28;20041;-77
2023/02/02 10:45:50;;;;;;;35.92;6.82;;;;;;;6.53;100.00;102146.56;5027935;28;20049;-77
2023/02/02 10:48:22;;;;;;;23.23;6.65;;;;;;;6.58;100.00;102136.78;5011217;28;20041;-77
2023/02/02 10:50:55;;;;;;;31.50;6.82;;;;;;;6.56;100.00;102136.06;4997157;28;20037;-77
2023/02/02 10:53:24;;;;;;;24.10;6.25;;;;;;;6.67;100.00;102139.69;5004981;28;20034;-77
2023/02/02 10:56:05;;;;;;;31.15;6.93;;;;;;;6.73;100.00;102140.16;4994924;28;20041;-77
2023/02/02 10:58:54;;;;;;;23.40;6.38;;;;;;;6.76;100.00;102141.69;4993599;28;20375;-77
2023/02/02 11:01:21;;;;;;;20.73;6.05;;;;;;;6.83;100.00;102142.94;5018237;28;20033;-77
2023/02/02 11:03:47;;;;;;;25.42;4.97;;;;;;;6.80;100.00;102145.75;4994991;28;20041;-77
2023/02/02 11:08:59;;;;;;;25.85;5.43;;;;;;;6.89;100.00;102142.56;5028508;28;20068;-76
2023/02/02 11:11:31;;;;;;;23.05;5.10;;;;;;;6.85;100.00;102159.16;4995464;28;20033;-77
2023/02/02 11:14:00;;;;;;;14.23;5.00;;;;;;;6.85;100.00;102154.00;4991945;28;20057;-78
2023/02/02 11:16:29;;;;;;;17.90;4.45;;;;;;;6.85;100.00;102158.34;5024481;28;20065;-77
2023/02/02 11:18:55;;;;;;;14.77;4.65;;;;;;;6.83;100.00;102156.66;4998313;28;20120;-78
2023/02/02 11:21:26;;;;;;;25.52;5.30;;;;;;;6.89;100.00;102152.88;4996125;28;20116;-77
2023/02/02 11:23:55;;;;;;;20.55;4.70;;;;;;;6.94;100.00;102155.16;5011796;28;20033;-78
2023/02/02 11:26:23;;;;;;;23.48;5.35;;;;;;;6.89;100.00;102162.34;5008845;28;20064;-77
2023/02/02 11:28:50;;;;;;;24.65;5.53;;;;;;;6.99;100.00;102153.94;4998557;28;20033;-77
2023/02/02 11:31:31;;;;;;;23.20;5.15;;;;;;;6.90;100.00;102157.13;5022990;28;20758;-78
2023/02/02 11:34:17;;;;;;;21.00;5.50;;;;;;;7.01;100.00;102154.66;5027847;28;20543;-78
2023/02/02 11:37:14;;;;;;;23.42;5.68;;;;;;;7.00;100.00;102162.50;5024310;28;20045;-77
2023/02/02 11:39:41;;;;;;;19.13;5.10;;;;;;;7.11;100.00;102152.31;4995977;28;20025;-78
2023/02/02 11:42:19;;;;;;;23.33;4.68;;;;;;;7.07;100.00;102152.63;5023438;28;20052;-78
2023/02/02 11:44:52;;;;;;;25.27;5.68;;;;;;;7.14;100.00;102144.38;5015156;28;20389;-78